Terminal Aerodrome Forecast
Issued by NWS Charleston, WV

Home | Current Version | Previous Version | Text Only | Print | Product List | Glossary On
Versions: 1 2 3 4 5 6 7 8 9 10 11 12 13 14 15 16 17 18 19 20 21 22
000
FTUS41 KRLX 182336
TAFHTS
TAF
KHTS 182336Z 1900/1924 09003KT P6SM FEW250
     FM190600 13005KT P6SM BKN045
     FM190900 16006KT P6SM -RA BKN035
     FM191000 17006KT 6SM -RA BKN030
     FM191500 19007KT P6SM BKN250=

USA.gov is the U.S. government's official web portal to all federal, state and local government web resources and services.